Chicago, Illinois
Traffic Map
Current Weather Conditions
Chicago, Illinois
Overcast
Overcast
76°
Feels Like: 76°
Wind Chill: 76° Ceiling: 1200
Heat Index: 76° Visibility: 10mi
Dew Point: 71° Wind: 13mph
Humidity: 85% Direction: 200° (SSW)
Pressure: 29.65in Gusts: 0mph
Raw Report DataKMDW 230653Z 20011KT 10SM BKN012 OVC015 24/22 A2965 RMK AO2 SLP029 T02440217
Traffic Incident Summary
Active as of:
Severity:
Category:
InformationThere was an issue retrieving the traffic information for this location. Please try a different location or try again shortly.
Advertisements
Track Severe Weather on mobile